sensor_id;sensor_type;location;lat;lon;timestamp;temperature;humidity
20566;DHT22;10441;50.884;12.064;2022-10-18T00:00:47;12.80;99.90
20566;DHT22;10441;50.884;12.064;2022-10-18T00:03:14;12.70;99.90
20566;DHT22;10441;50.884;12.064;2022-10-18T00:05:41;12.80;99.90
20566;DHT22;10441;50.884;12.064;2022-10-18T00:08:09;12.80;99.90
20566;DHT22;10441;50.884;12.064;2022-10-18T00:10:36;12.80;99.90
20566;DHT22;10441;50.884;12.064;2022-10-18T00:13:03;12.70;99.90
20566;DHT22;10441;50.884;12.064;2022-10-18T00:15:30;12.80;99.90
20566;DHT22;10441;50.884;12.064;2022-10-18T00:17:57;13.00;99.90
20566;DHT22;10441;50.884;12.064;2022-10-18T00:20:23;13.00;99.90
20566;DHT22;10441;50.884;12.064;2022-10-18T00:22:51;13.00;99.90
20566;DHT22;10441;50.884;12.064;2022-10-18T00:25:19;12.90;99.90
20566;DHT22;10441;50.884;12.064;2022-10-18T00:27:45;12.60;99.90
20566;DHT22;10441;50.884;12.064;2022-10-18T00:30:13;12.70;99.90
20566;DHT22;10441;50.884;12.064;2022-10-18T00:32:40;12.60;99.90
20566;DHT22;10441;50.884;12.064;2022-10-18T00:35:07;12.50;99.90
20566;DHT22;10441;50.884;12.064;2022-10-18T00:37:34;12.50;99.90
20566;DHT22;10441;50.884;12.064;2022-10-18T00:40:01;12.50;99.90
20566;DHT22;10441;50.884;12.064;2022-10-18T00:42:32;12.50;99.90
20566;DHT22;10441;50.884;12.064;2022-10-18T00:47:41;12.50;99.90
20566;DHT22;10441;50.884;12.064;2022-10-18T00:50:09;12.50;99.90
20566;DHT22;10441;50.884;12.064;2022-10-18T00:52:36;12.50;99.90
20566;DHT22;10441;50.884;12.064;2022-10-18T00:55:04;12.50;99.90
20566;DHT22;10441;50.884;12.064;2022-10-18T00:57:33;12.60;99.90
20566;DHT22;10441;50.884;12.064;2022-10-18T01:00:00;12.60;99.90
20566;DHT22;10441;50.884;12.064;2022-10-18T01:02:33;12.60;99.90
20566;DHT22;10441;50.884;12.064;2022-10-18T01:04:59;12.60;99.90
20566;DHT22;10441;50.884;12.064;2022-10-18T01:07:29;12.70;99.90
20566;DHT22;10441;50.884;12.064;2022-10-18T01:09:59;12.70;99.90
20566;DHT22;10441;50.884;12.064;2022-10-18T01:12:35;12.70;99.90
20566;DHT22;10441;50.884;12.064;2022-10-18T01:15:05;12.70;99.90
20566;DHT22;10441;50.884;12.064;2022-10-18T01:17:34;12.70;99.90
20566;DHT22;10441;50.884;12.064;2022-10-18T01:23:01;12.90;99.90
20566;DHT22;10441;50.884;12.064;2022-10-18T01:25:33;13.00;99.90
20566;DHT22;10441;50.884;12.064;2022-10-18T01:28:07;13.00;99.90
20566;DHT22;10441;50.884;12.064;2022-10-18T01:30:37;13.00;99.90
20566;DHT22;10441;50.884;12.064;2022-10-18T01:33:07;13.10;99.90
20566;DHT22;10441;50.884;12.064;2022-10-18T01:35:38;13.10;99.90
20566;DHT22;10441;50.884;12.064;2022-10-18T01:38:06;13.20;99.90
20566;DHT22;10441;50.884;12.064;2022-10-18T01:40:36;13.20;99.90
20566;DHT22;10441;50.884;12.064;2022-10-18T01:43:04;13.20;99.90
20566;DHT22;10441;50.884;12.064;2022-10-18T01:45:31;13.20;99.90
20566;DHT22;10441;50.884;12.064;2022-10-18T01:48:00;13.20;99.90
20566;DHT22;10441;50.884;12.064;2022-10-18T01:50:28;13.20;99.90
20566;DHT22;10441;50.884;12.064;2022-10-18T01:52:54;13.20;99.90
20566;DHT22;10441;50.884;12.064;2022-10-18T01:55:23;13.20;99.90
20566;DHT22;10441;50.884;12.064;2022-10-18T01:57:52;13.20;99.90
20566;DHT22;10441;50.884;12.064;2022-10-18T02:00:22;13.20;92.10
20566;DHT22;10441;50.884;12.064;2022-10-18T02:02:50;13.30;1.00
20566;DHT22;10441;50.884;12.064;2022-10-18T02:05:23;13.30;1.00
20566;DHT22;10441;50.884;12.064;2022-10-18T02:07:52;13.40;1.00
20566;DHT22;10441;50.884;12.064;2022-10-18T02:10:22;13.40;1.00
20566;DHT22;10441;50.884;12.064;2022-10-18T02:12:50;13.40;1.00
20566;DHT22;10441;50.884;12.064;2022-10-18T02:15:20;13.40;1.00
20566;DHT22;10441;50.884;12.064;2022-10-18T02:17:48;13.40;1.00
20566;DHT22;10441;50.884;12.064;2022-10-18T02:20:17;13.30;1.00
20566;DHT22;10441;50.884;12.064;2022-10-18T02:22:46;13.30;1.00
20566;DHT22;10441;50.884;12.064;2022-10-18T02:25:15;13.30;1.00
20566;DHT22;10441;50.884;12.064;2022-10-18T02:27:42;13.30;1.00
20566;DHT22;10441;50.884;12.064;2022-10-18T02:30:09;13.30;1.00
20566;DHT22;10441;50.884;12.064;2022-10-18T02:32:37;13.40;1.00
20566;DHT22;10441;50.884;12.064;2022-10-18T02:35:06;13.40;1.00
20566;DHT22;10441;50.884;12.064;2022-10-18T02:37:36;13.40;1.00
20566;DHT22;10441;50.884;12.064;2022-10-18T02:40:07;13.40;1.00
20566;DHT22;10441;50.884;12.064;2022-10-18T02:42:34;13.50;1.00
20566;DHT22;10441;50.884;12.064;2022-10-18T02:45:02;13.50;1.00
20566;DHT22;10441;50.884;12.064;2022-10-18T02:47:29;13.50;99.90
20566;DHT22;10441;50.884;12.064;2022-10-18T02:49:56;13.50;99.90
20566;DHT22;10441;50.884;12.064;2022-10-18T02:52:23;13.50;99.90
20566;DHT22;10441;50.884;12.064;2022-10-18T02:54:50;13.50;99.90
20566;DHT22;10441;50.884;12.064;2022-10-18T02:57:18;13.50;1.00
20566;DHT22;10441;50.884;12.064;2022-10-18T02:59:45;13.40;1.00
20566;DHT22;10441;50.884;12.064;2022-10-18T03:02:12;13.40;1.00
20566;DHT22;10441;50.884;12.064;2022-10-18T03:04:39;13.40;1.00
20566;DHT22;10441;50.884;12.064;2022-10-18T03:07:06;13.40;99.90
20566;DHT22;10441;50.884;12.064;2022-10-18T03:09:32;13.50;38.70
20566;DHT22;10441;50.884;12.064;2022-10-18T03:11:59;13.50;99.90
20566;DHT22;10441;50.884;12.064;2022-10-18T03:14:28;13.50;1.00
20566;DHT22;10441;50.884;12.064;2022-10-18T03:16:54;13.50;1.00
20566;DHT22;10441;50.884;12.064;2022-10-18T03:19:21;13.50;1.00
20566;DHT22;10441;50.884;12.064;2022-10-18T03:21:48;13.50;9.10
20566;DHT22;10441;50.884;12.064;2022-10-18T03:24:15;13.50;99.90
20566;DHT22;10441;50.884;12.064;2022-10-18T03:26:42;13.50;99.90
20566;DHT22;10441;50.884;12.064;2022-10-18T03:29:09;13.50;97.40
20566;DHT22;10441;50.884;12.064;2022-10-18T03:31:52;13.50;99.90
20566;DHT22;10441;50.884;12.064;2022-10-18T03:34:18;13.50;74.30
20566;DHT22;10441;50.884;12.064;2022-10-18T03:36:46;13.40;1.00
20566;DHT22;10441;50.884;12.064;2022-10-18T03:39:27;13.50;1.00
20566;DHT22;10441;50.884;12.064;2022-10-18T03:41:54;13.50;1.00
20566;DHT22;10441;50.884;12.064;2022-10-18T03:47:28;13.50;99.90
20566;DHT22;10441;50.884;12.064;2022-10-18T03:49:55;13.50;1.00
20566;DHT22;10441;50.884;12.064;2022-10-18T03:52:23;13.50;99.90
20566;DHT22;10441;50.884;12.064;2022-10-18T03:54:55;13.50;1.00
20566;DHT22;10441;50.884;12.064;2022-10-18T03:57:26;13.40;99.90
20566;DHT22;10441;50.884;12.064;2022-10-18T03:59:53;13.50;99.90
20566;DHT22;10441;50.884;12.064;2022-10-18T04:02:20;13.40;99.90
20566;DHT22;10441;50.884;12.064;2022-10-18T04:05:04;13.50;1.00
20566;DHT22;10441;50.884;12.064;2022-10-18T04:07:31;13.40;1.00
20566;DHT22;10441;50.884;12.064;2022-10-18T04:09:58;13.40;1.00
20566;DHT22;10441;50.884;12.064;2022-10-18T04:12:30;13.40;99.90
20566;DHT22;10441;50.884;12.064;2022-10-18T04:14:56;13.50;99.90
20566;DHT22;10441;50.884;12.064;2022-10-18T04:17:23;13.50;99.90
20566;DHT22;10441;50.884;12.064;2022-10-18T04:19:51;13.50;8.00
20566;DHT22;10441;50.884;12.064;2022-10-18T04:22:23;13.50;1.00
20566;DHT22;10441;50.884;12.064;2022-10-18T04:24:53;13.50;99.90
20566;DHT22;10441;50.884;12.064;2022-10-18T04:27:21;13.50;99.90
20566;DHT22;10441;50.884;12.064;2022-10-18T04:29:48;13.50;99.90
20566;DHT22;10441;50.884;12.064;2022-10-18T04:35:25;13.50;1.00
20566;DHT22;10441;50.884;12.064;2022-10-18T04:41:03;13.60;99.90
20566;DHT22;10441;50.884;12.064;2022-10-18T04:49:49;13.50;1.00
20566;DHT22;10441;50.884;12.064;2022-10-18T04:52:17;13.60;99.90
20566;DHT22;10441;50.884;12.064;2022-10-18T04:54:44;13.50;1.00
20566;DHT22;10441;50.884;12.064;2022-10-18T04:57:13;13.50;1.00
20566;DHT22;10441;50.884;12.064;2022-10-18T04:59:40;13.60;45.40
20566;DHT22;10441;50.884;12.064;2022-10-18T05:02:08;13.60;99.90
20566;DHT22;10441;50.884;12.064;2022-10-18T05:04:38;13.60;99.90
20566;DHT22;10441;50.884;12.064;2022-10-18T05:07:06;13.60;1.00
20566;DHT22;10441;50.884;12.064;2022-10-18T05:09:35;13.60;1.00
20566;DHT22;10441;50.884;12.064;2022-10-18T05:12:02;13.60;99.90
20566;DHT22;10441;50.884;12.064;2022-10-18T05:14:37;13.60;99.90
20566;DHT22;10441;50.884;12.064;2022-10-18T05:17:07;13.60;1.00
20566;DHT22;10441;50.884;12.064;2022-10-18T05:19:35;13.60;1.00
20566;DHT22;10441;50.884;12.064;2022-10-18T05:22:03;13.60;99.90
20566;DHT22;10441;50.884;12.064;2022-10-18T05:24:31;13.60;99.90
20566;DHT22;10441;50.884;12.064;2022-10-18T05:26:59;13.60;99.90
20566;DHT22;10441;50.884;12.064;2022-10-18T05:29:26;13.60;1.00
20566;DHT22;10441;50.884;12.064;2022-10-18T05:31:54;13.60;1.00
20566;DHT22;10441;50.884;12.064;2022-10-18T07:35:49;14.60;1.00
20566;DHT22;10441;50.884;12.064;2022-10-18T07:38:16;14.90;99.90
20566;DHT22;10441;50.884;12.064;2022-10-18T07:40:43;15.60;1.00
20566;DHT22;10441;50.884;12.064;2022-10-18T07:43:11;16.40;1.00
20566;DHT22;10441;50.884;12.064;2022-10-18T07:45:38;17.10;1.00
20566;DHT22;10441;50.884;12.064;2022-10-18T07:48:04;17.20;1.00
20566;DHT22;10441;50.884;12.064;2022-10-18T07:50:31;17.70;1.00
20566;DHT22;10441;50.884;12.064;2022-10-18T07:53:00;17.50;1.00
20566;DHT22;10441;50.884;12.064;2022-10-18T07:55:27;17.10;1.00
20566;DHT22;10441;50.884;12.064;2022-10-18T07:58:07;16.80;1.00
20566;DHT22;10441;50.884;12.064;2022-10-18T08:00:34;16.60;1.00
20566;DHT22;10441;50.884;12.064;2022-10-18T08:24:17;15.50;99.90
20566;DHT22;10441;50.884;12.064;2022-10-18T08:32:52;16.10;1.00
20566;DHT22;10441;50.884;12.064;2022-10-18T08:35:33;15.90;1.00
20566;DHT22;10441;50.884;12.064;2022-10-18T08:38:00;15.90;99.90
20566;DHT22;10441;50.884;12.064;2022-10-18T08:40:29;15.70;99.90
20566;DHT22;10441;50.884;12.064;2022-10-18T10:44:23;15.60;99.90
20566;DHT22;10441;50.884;12.064;2022-10-18T10:46:51;15.80;99.90
20566;DHT22;10441;50.884;12.064;2022-10-18T10:49:19;15.90;1.00
20566;DHT22;10441;50.884;12.064;2022-10-18T10:51:52;15.90;1.00
20566;DHT22;10441;50.884;12.064;2022-10-18T10:54:20;15.90;1.00
20566;DHT22;10441;50.884;12.064;2022-10-18T10:56:50;15.80;99.90
20566;DHT22;10441;50.884;12.064;2022-10-18T10:59:19;15.60;1.00
20566;DHT22;10441;50.884;12.064;2022-10-18T11:01:48;15.50;1.00
20566;DHT22;10441;50.884;12.064;2022-10-18T11:04:23;15.40;99.90
20566;DHT22;10441;50.884;12.064;2022-10-18T11:07:01;15.50;1.00
20566;DHT22;10441;50.884;12.064;2022-10-18T11:09:32;15.40;1.00
20566;DHT22;10441;50.884;12.064;2022-10-18T11:12:03;15.30;1.00
20566;DHT22;10441;50.884;12.064;2022-10-18T11:14:33;15.40;1.00
20566;DHT22;10441;50.884;12.064;2022-10-18T11:17:06;15.40;1.00
20566;DHT22;10441;50.884;12.064;2022-10-18T11:19:39;15.50;1.00
20566;DHT22;10441;50.884;12.064;2022-10-18T11:22:13;15.50;1.00
20566;DHT22;10441;50.884;12.064;2022-10-18T11:24:40;15.50;1.00
20566;DHT22;10441;50.884;12.064;2022-10-18T11:27:09;15.50;1.00
20566;DHT22;10441;50.884;12.064;2022-10-18T11:29:41;15.60;1.00
20566;DHT22;10441;50.884;12.064;2022-10-18T11:32:15;15.60;99.90
20566;DHT22;10441;50.884;12.064;2022-10-18T11:37:44;15.70;1.00
20566;DHT22;10441;50.884;12.064;2022-10-18T11:40:22;15.70;1.00
20566;DHT22;10441;50.884;12.064;2022-10-18T11:42:52;15.60;99.90
20566;DHT22;10441;50.884;12.064;2022-10-18T11:45:25;15.70;1.00
20566;DHT22;10441;50.884;12.064;2022-10-18T11:47:57;15.40;1.00
20566;DHT22;10441;50.884;12.064;2022-10-18T11:50:29;15.20;1.00
20566;DHT22;10441;50.884;12.064;2022-10-18T11:53:03;15.20;65.50
20566;DHT22;10441;50.884;12.064;2022-10-18T11:55:35;15.20;99.90
20566;DHT22;10441;50.884;12.064;2022-10-18T11:58:09;15.10;99.90
20566;DHT22;10441;50.884;12.064;2022-10-18T12:00:41;15.10;99.90
20566;DHT22;10441;50.884;12.064;2022-10-18T12:03:21;15.20;99.90
20566;DHT22;10441;50.884;12.064;2022-10-18T12:05:51;15.20;99.90
20566;DHT22;10441;50.884;12.064;2022-10-18T12:08:22;15.70;99.90
20566;DHT22;10441;50.884;12.064;2022-10-18T12:10:52;15.50;99.90
20566;DHT22;10441;50.884;12.064;2022-10-18T12:13:24;15.70;99.90
20566;DHT22;10441;50.884;12.064;2022-10-18T12:15:54;15.80;99.90
20566;DHT22;10441;50.884;12.064;2022-10-18T12:18:25;15.90;99.90
20566;DHT22;10441;50.884;12.064;2022-10-18T12:20:53;15.90;1.00
20566;DHT22;10441;50.884;12.064;2022-10-18T12:23:24;15.60;1.00
20566;DHT22;10441;50.884;12.064;2022-10-18T12:25:58;15.90;11.30
20566;DHT22;10441;50.884;12.064;2022-10-18T12:28:29;15.80;1.00
20566;DHT22;10441;50.884;12.064;2022-10-18T12:31:02;15.50;53.80
20566;DHT22;10441;50.884;12.064;2022-10-18T12:33:35;15.60;99.90
20566;DHT22;10441;50.884;12.064;2022-10-18T12:36:16;15.70;99.90
20566;DHT22;10441;50.884;12.064;2022-10-18T12:38:45;15.80;99.90
20566;DHT22;10441;50.884;12.064;2022-10-18T12:41:18;15.60;23.00
20566;DHT22;10441;50.884;12.064;2022-10-18T15:47:24;15.50;99.90
20566;DHT22;10441;50.884;12.064;2022-10-18T15:49:52;15.40;99.90
20566;DHT22;10441;50.884;12.064;2022-10-18T15:52:29;15.40;1.00
20566;DHT22;10441;50.884;12.064;2022-10-18T15:54:57;15.40;99.90
20566;DHT22;10441;50.884;12.064;2022-10-18T15:57:25;15.20;1.00
20566;DHT22;10441;50.884;12.064;2022-10-18T15:59:57;15.40;1.00
20566;DHT22;10441;50.884;12.064;2022-10-18T16:02:34;15.40;1.00
20566;DHT22;10441;50.884;12.064;2022-10-18T16:05:10;15.40;99.90
20566;DHT22;10441;50.884;12.064;2022-10-18T16:07:44;15.40;99.90
20566;DHT22;10441;50.884;12.064;2022-10-18T16:10:14;15.40;6.10
20566;DHT22;10441;50.884;12.064;2022-10-18T16:12:43;15.40;1.00
20566;DHT22;10441;50.884;12.064;2022-10-18T16:15:11;15.30;1.00
20566;DHT22;10441;50.884;12.064;2022-10-18T16:17:44;15.30;99.90
20566;DHT22;10441;50.884;12.064;2022-10-18T16:20:13;15.20;64.70
20566;DHT22;10441;50.884;12.064;2022-10-18T16:22:45;15.20;99.90
20566;DHT22;10441;50.884;12.064;2022-10-18T16:25:13;15.20;99.90
20566;DHT22;10441;50.884;12.064;2022-10-18T16:27:45;15.10;99.90
20566;DHT22;10441;50.884;12.064;2022-10-18T16:30:22;15.10;99.90
20566;DHT22;10441;50.884;12.064;2022-10-18T16:32:56;15.10;99.90
20566;DHT22;10441;50.884;12.064;2022-10-18T16:35:23;15.00;99.90
20566;DHT22;10441;50.884;12.064;2022-10-18T16:37:51;15.00;1.00
20566;DHT22;10441;50.884;12.064;2022-10-18T16:40:22;14.90;1.00
20566;DHT22;10441;50.884;12.064;2022-10-18T16:42:50;14.90;1.00
20566;DHT22;10441;50.884;12.064;2022-10-18T16:45:18;14.90;1.00
20566;DHT22;10441;50.884;12.064;2022-10-18T18:50:31;14.50;99.90
20566;DHT22;10441;50.884;12.064;2022-10-18T18:53:02;14.50;99.90
20566;DHT22;10441;50.884;12.064;2022-10-18T18:55:31;14.50;99.90
20566;DHT22;10441;50.884;12.064;2022-10-18T18:58:08;14.40;99.90
20566;DHT22;10441;50.884;12.064;2022-10-18T19:00:36;14.40;99.90
20566;DHT22;10441;50.884;12.064;2022-10-18T19:03:12;14.30;99.90
20566;DHT22;10441;50.884;12.064;2022-10-18T19:06:02;14.20;99.90
20566;DHT22;10441;50.884;12.064;2022-10-18T19:08:30;14.10;99.90
20566;DHT22;10441;50.884;12.064;2022-10-18T19:10:58;14.10;99.90
20566;DHT22;10441;50.884;12.064;2022-10-18T19:13:27;14.10;99.90
20566;DHT22;10441;50.884;12.064;2022-10-18T19:16:23;13.50;99.90
20566;DHT22;10441;50.884;12.064;2022-10-18T19:18:59;14.10;99.90
20566;DHT22;10441;50.884;12.064;2022-10-18T19:21:33;14.10;99.90
20566;DHT22;10441;50.884;12.064;2022-10-18T19:24:07;14.10;99.90
20566;DHT22;10441;50.884;12.064;2022-10-18T19:26:36;13.90;99.90
20566;DHT22;10441;50.884;12.064;2022-10-18T19:29:06;13.90;99.90
20566;DHT22;10441;50.884;12.064;2022-10-18T19:31:35;13.70;99.90
20566;DHT22;10441;50.884;12.064;2022-10-18T19:34:03;13.70;99.90
20566;DHT22;10441;50.884;12.064;2022-10-18T19:36:33;13.70;99.90
20566;DHT22;10441;50.884;12.064;2022-10-18T19:39:02;13.60;99.90
20566;DHT22;10441;50.884;12.064;2022-10-18T19:41:30;13.40;99.90
20566;DHT22;10441;50.884;12.064;2022-10-18T19:44:05;13.40;99.90
20566;DHT22;10441;50.884;12.064;2022-10-18T19:46:32;13.50;99.90
20566;DHT22;10441;50.884;12.064;2022-10-18T19:48:59;13.40;99.90
20566;DHT22;10441;50.884;12.064;2022-10-18T19:51:31;13.30;99.90
20566;DHT22;10441;50.884;12.064;2022-10-18T19:54:04;13.20;99.90
20566;DHT22;10441;50.884;12.064;2022-10-18T19:56:46;13.20;99.90
20566;DHT22;10441;50.884;12.064;2022-10-18T19:59:13;13.40;99.90
20566;DHT22;10441;50.884;12.064;2022-10-18T20:01:42;13.30;99.90
20566;DHT22;10441;50.884;12.064;2022-10-18T20:04:13;13.50;99.90
20566;DHT22;10441;50.884;12.064;2022-10-18T20:06:45;13.50;99.90
20566;DHT22;10441;50.884;12.064;2022-10-18T20:09:19;13.40;99.90
20566;DHT22;10441;50.884;12.064;2022-10-18T20:11:49;13.40;99.90
20566;DHT22;10441;50.884;12.064;2022-10-18T20:14:18;13.30;99.90
20566;DHT22;10441;50.884;12.064;2022-10-18T20:16:49;13.40;99.90
20566;DHT22;10441;50.884;12.064;2022-10-18T20:19:18;13.40;99.90
20566;DHT22;10441;50.884;12.064;2022-10-18T20:21:45;13.40;99.90
20566;DHT22;10441;50.884;12.064;2022-10-18T20:24:25;13.30;99.90
20566;DHT22;10441;50.884;12.064;2022-10-18T20:26:54;13.20;99.90
20566;DHT22;10441;50.884;12.064;2022-10-18T20:29:23;13.20;99.90
20566;DHT22;10441;50.884;12.064;2022-10-18T20:31:53;13.20;99.90
20566;DHT22;10441;50.884;12.064;2022-10-18T20:34:30;13.30;99.90
20566;DHT22;10441;50.884;12.064;2022-10-18T20:37:04;13.10;99.90
20566;DHT22;10441;50.884;12.064;2022-10-18T20:39:32;12.00;99.90
20566;DHT22;10441;50.884;12.064;2022-10-18T20:41:59;12.20;99.90
20566;DHT22;10441;50.884;12.064;2022-10-18T20:44:27;13.10;99.90
20566;DHT22;10441;50.884;12.064;2022-10-18T20:46:59;13.10;99.90
20566;DHT22;10441;50.884;12.064;2022-10-18T20:49:26;13.20;99.90
20566;DHT22;10441;50.884;12.064;2022-10-18T20:51:52;13.20;99.90
20566;DHT22;10441;50.884;12.064;2022-10-18T20:54:19;13.20;99.90
20566;DHT22;10441;50.884;12.064;2022-10-18T20:56:48;13.30;99.90
20566;DHT22;10441;50.884;12.064;2022-10-18T20:59:15;13.20;99.90
20566;DHT22;10441;50.884;12.064;2022-10-18T21:01:42;13.20;99.90
20566;DHT22;10441;50.884;12.064;2022-10-18T21:04:09;13.10;99.90
20566;DHT22;10441;50.884;12.064;2022-10-18T21:06:36;13.10;99.90
20566;DHT22;10441;50.884;12.064;2022-10-18T21:09:05;13.00;99.90
20566;DHT22;10441;50.884;12.064;2022-10-18T21:11:33;13.00;99.90
20566;DHT22;10441;50.884;12.064;2022-10-18T21:14:02;13.00;99.90
20566;DHT22;10441;50.884;12.064;2022-10-18T21:16:30;12.90;99.90
20566;DHT22;10441;50.884;12.064;2022-10-18T21:19:00;12.90;99.90
20566;DHT22;10441;50.884;12.064;2022-10-18T21:21:27;13.00;99.90
20566;DHT22;10441;50.884;12.064;2022-10-18T21:23:54;12.90;99.90
20566;DHT22;10441;50.884;12.064;2022-10-18T21:26:21;13.00;99.90
20566;DHT22;10441;50.884;12.064;2022-10-18T21:28:49;13.10;99.90
20566;DHT22;10441;50.884;12.064;2022-10-18T21:31:18;13.30;99.90
20566;DHT22;10441;50.884;12.064;2022-10-18T21:33:46;13.30;99.90
20566;DHT22;10441;50.884;12.064;2022-10-18T21:36:13;13.20;99.90
20566;DHT22;10441;50.884;12.064;2022-10-18T21:38:42;13.20;99.90
20566;DHT22;10441;50.884;12.064;2022-10-18T21:41:17;13.30;99.90
20566;DHT22;10441;50.884;12.064;2022-10-18T21:43:45;13.30;99.90
20566;DHT22;10441;50.884;12.064;2022-10-18T21:46:13;13.50;99.90
20566;DHT22;10441;50.884;12.064;2022-10-18T21:48:42;13.60;99.90
20566;DHT22;10441;50.884;12.064;2022-10-18T23:52:35;11.00;99.90
20566;DHT22;10441;50.884;12.064;2022-10-18T23:55:02;10.90;99.90
20566;DHT22;10441;50.884;12.064;2022-10-18T23:57:29;10.80;99.90
